createdAt,value
2023-03-21T00:04:51.371Z,101665.03
2023-03-21T00:10:04.787Z,101660.53
2023-03-21T00:15:10.480Z,101655.28
2023-03-21T00:20:16.093Z,101640.03
2023-03-21T00:25:21.723Z,101632.91
2023-03-21T00:30:25.407Z,101641.13
2023-03-21T00:35:58.434Z,101640.13
2023-03-21T00:40:53.780Z,101638.41
2023-03-21T00:45:58.533Z,101625.84
2023-03-21T00:51:03.401Z,101624.31
2023-03-21T00:56:06.908Z,101613.41
2023-03-21T01:01:10.611Z,101618.97
2023-03-21T01:06:19.542Z,101611.94
2023-03-21T01:11:25.459Z,101604.81
2023-03-21T01:16:28.652Z,101595.28
2023-03-21T01:21:33.750Z,101599.63
2023-03-21T01:26:37.837Z,101592.44
2023-03-21T01:31:41.511Z,101586.63
2023-03-21T01:36:46.191Z,101567.34
2023-03-21T01:41:53.733Z,101567.91
2023-03-21T01:47:11.154Z,101567.75
2023-03-21T01:52:39.689Z,101555.16
2023-03-21T01:58:06.822Z,101563.06
2023-03-21T02:03:33.281Z,101559.63
2023-03-21T02:08:54.771Z,101556.00
2023-03-21T02:14:06.595Z,101543.75
2023-03-21T02:19:53.101Z,101537.66
2023-03-21T02:25:42.070Z,101540.38
2023-03-21T02:31:15.791Z,101527.91
2023-03-21T02:36:28.524Z,101534.75
2023-03-21T02:41:44.539Z,101525.13
2023-03-21T02:47:04.761Z,101508.34
2023-03-21T02:52:25.545Z,101508.34
2023-03-21T02:57:43.271Z,101501.28
2023-03-21T03:02:54.615Z,101497.69
2023-03-21T03:08:15.526Z,101489.69
2023-03-21T03:13:36.528Z,101490.41
2023-03-21T03:18:47.014Z,101489.44
2023-03-21T03:23:54.026Z,101494.81
2023-03-21T03:29:02.723Z,101488.53
2023-03-21T03:34:09.899Z,101491.91
2023-03-21T03:39:18.085Z,101493.28
2023-03-21T03:44:30.067Z,101488.88
2023-03-21T03:49:44.158Z,101475.47
2023-03-21T03:54:53.414Z,101479.13
2023-03-21T04:00:00.416Z,101472.16
2023-03-21T04:05:21.890Z,101464.31
2023-03-21T04:10:25.536Z,101458.09
2023-03-21T04:15:30.286Z,101434.81
2023-03-21T04:20:40.063Z,101444.13
2023-03-21T04:25:55.779Z,101458.56
2023-03-21T04:31:08.930Z,101446.44
2023-03-21T04:36:27.640Z,101442.09
2023-03-21T04:41:34.636Z,101435.19
2023-03-21T04:46:39.947Z,101435.25
2023-03-21T04:51:45.211Z,101431.91
2023-03-21T04:56:52.458Z,101421.41
2023-03-21T05:01:58.697Z,101417.97
2023-03-21T05:07:01.917Z,101402.84
2023-03-21T05:12:06.333Z,101421.34
2023-03-21T05:17:24.977Z,101411.50
2023-03-21T05:22:29.173Z,101418.56
2023-03-21T05:27:36.495Z,101414.06
2023-03-21T05:32:46.314Z,101415.03
2023-03-21T05:37:53.655Z,101416.75
2023-03-21T05:42:58.913Z,101414.06
2023-03-21T05:48:03.892Z,101411.38
2023-03-21T05:53:12.725Z,101407.91
2023-03-21T05:58:16.317Z,101410.84
2023-03-21T06:03:26.012Z,101411.44
2023-03-21T06:08:44.445Z,101414.28
2023-03-21T06:13:47.704Z,101412.34
2023-03-21T06:18:53.320Z,101411.75
2023-03-21T06:24:29.132Z,101421.41
2023-03-21T06:29:33.009Z,101420.81
2023-03-21T06:34:39.442Z,101414.97
2023-03-21T06:39:43.035Z,101417.84
2023-03-21T06:44:46.797Z,101422.19
2023-03-21T06:49:53.609Z,101413.25
2023-03-21T06:54:56.911Z,101426.69
2023-03-21T06:59:59.998Z,101435.38
2023-03-21T07:05:09.658Z,101430.88
2023-03-21T07:10:13.930Z,101424.75
2023-03-21T07:15:26.273Z,101427.66
2023-03-21T07:20:33.911Z,101414.63
2023-03-21T07:25:40.608Z,101421.00
2023-03-21T07:30:45.394Z,101401.28
2023-03-21T07:35:52.464Z,101409.97
2023-03-21T07:40:55.644Z,101401.38
2023-03-21T07:46:00.054Z,101401.44
2023-03-21T07:51:06.919Z,101394.63
2023-03-21T07:56:12.541Z,101392.81
2023-03-21T08:01:15.790Z,101390.34
2023-03-21T08:06:20.376Z,101392.47
2023-03-21T08:11:23.772Z,101390.72
2023-03-21T08:16:27.352Z,101386.72
2023-03-21T08:21:32.083Z,101376.75
2023-03-21T08:26:35.529Z,101362.94
2023-03-21T08:31:38.950Z,101360.19
2023-03-21T08:36:43.901Z,101360.88
2023-03-21T08:41:47.162Z,101350.72
2023-03-21T08:46:50.423Z,101337.16
2023-03-21T08:51:58.095Z,101344.34
2023-03-21T08:57:01.140Z,101342.66
2023-03-21T09:02:04.413Z,101341.66
2023-03-21T09:07:10.664Z,101341.16
2023-03-21T09:12:14.088Z,101332.06
2023-03-21T09:17:19.310Z,101311.91
2023-03-21T09:22:26.180Z,101311.38
2023-03-21T09:27:29.232Z,101302.00
2023-03-21T09:32:32.917Z,101305.44
2023-03-21T09:37:38.415Z,101305.91
2023-03-21T09:42:57.000Z,101284.34
2023-03-21T09:48:03.350Z,101302.75
2023-03-21T09:53:13.968Z,101308.53
2023-03-21T09:58:27.845Z,101291.94
2023-03-21T10:03:35.245Z,101295.94
2023-03-21T10:08:42.483Z,101300.53
2023-03-21T10:13:51.541Z,101289.91
2023-03-21T10:18:56.342Z,101289.53
2023-03-21T10:24:02.231Z,101283.91
2023-03-21T10:29:05.546Z,101276.84
2023-03-21T10:34:14.990Z,101282.81
2023-03-21T10:39:27.401Z,101286.16
2023-03-21T10:44:31.936Z,101276.03
2023-03-21T10:49:56.492Z,101274.28
2023-03-21T10:55:19.770Z,101282.75
2023-03-21T11:00:27.191Z,101280.66
2023-03-21T11:05:37.711Z,101271.88
2023-03-21T11:10:56.972Z,101259.09
2023-03-21T11:16:06.823Z,101261.78
2023-03-21T11:21:12.598Z,101252.19
2023-03-21T11:26:24.459Z,101254.56
2023-03-21T11:31:39.650Z,101260.28
2023-03-21T11:36:44.095Z,101251.47
2023-03-21T11:41:53.330Z,101250.22
2023-03-21T11:46:56.597Z,101249.22
2023-03-21T11:52:16.448Z,101255.03
2023-03-21T11:57:31.377Z,101253.94
2023-03-21T12:03:00.410Z,101256.47
2023-03-21T12:08:10.117Z,101234.22
2023-03-21T12:13:31.621Z,101243.19
2023-03-21T12:18:54.406Z,101233.47
2023-03-21T12:24:05.147Z,101224.16
2023-03-21T12:29:31.499Z,101224.53
2023-03-21T12:34:56.414Z,101211.72
2023-03-21T12:40:10.265Z,101219.22
2023-03-21T12:45:20.462Z,101222.94
2023-03-21T12:50:28.790Z,101203.78
2023-03-21T12:55:34.967Z,101201.44
2023-03-21T13:00:44.509Z,101200.59
2023-03-21T13:05:51.747Z,101182.59
2023-03-21T13:11:00.119Z,101187.78
2023-03-21T13:16:11.501Z,101188.66
2023-03-21T13:21:19.285Z,101179.97
2023-03-21T13:26:23.005Z,101166.59
2023-03-21T13:31:32.034Z,101176.69
2023-03-21T13:36:43.751Z,101154.88
2023-03-21T13:41:52.216Z,101156.44
2023-03-21T13:47:01.945Z,101137.22
2023-03-21T13:52:28.390Z,101161.88
2023-03-21T13:57:40.609Z,101152.00
2023-03-21T14:02:56.728Z,101140.28
2023-03-21T14:08:13.608Z,101141.41
2023-03-21T14:13:22.532Z,101124.03
2023-03-21T14:18:52.360Z,101128.97
2023-03-21T14:24:00.794Z,101128.78
2023-03-21T14:29:09.703Z,101117.81
2023-03-21T14:34:21.558Z,101118.22
2023-03-21T14:39:28.166Z,101120.41
2023-03-21T14:44:52.819Z,101127.00
2023-03-21T14:50:01.104Z,101137.28
2023-03-21T14:55:15.264Z,101123.72
2023-03-21T15:00:24.972Z,101112.63
2023-03-21T15:05:33.876Z,101097.28
2023-03-21T15:10:38.569Z,101101.94
2023-03-21T15:15:43.061Z,101101.59
2023-03-21T15:20:51.521Z,101095.88
2023-03-21T15:25:55.058Z,101094.88
2023-03-21T15:30:58.292Z,101096.63
2023-03-21T15:36:10.406Z,101100.75
2023-03-21T15:41:28.841Z,101110.75
2023-03-21T15:46:41.633Z,101115.44
2023-03-21T15:51:49.206Z,101129.03
2023-03-21T15:56:56.108Z,101114.97
2023-03-21T16:02:02.338Z,101143.91
2023-03-21T16:07:17.437Z,101147.78
2023-03-21T16:12:20.581Z,101148.34
2023-03-21T16:17:29.697Z,101153.81
2023-03-21T16:22:35.035Z,101137.72
2023-03-21T16:27:38.290Z,101126.59
2023-03-21T16:32:41.725Z,101134.69
2023-03-21T16:37:50.252Z,101131.34
2023-03-21T16:42:53.481Z,101120.50
2023-03-21T16:47:56.880Z,101118.38
2023-03-21T16:53:02.650Z,101118.00
2023-03-21T16:58:06.744Z,101117.16
2023-03-21T17:03:19.124Z,101108.41
2023-03-21T17:08:24.925Z,101095.03
2023-03-21T17:13:28.488Z,101103.88
2023-03-21T17:18:31.508Z,101102.53
2023-03-21T17:23:36.203Z,101093.22
2023-03-21T17:28:42.299Z,101096.53
2023-03-21T17:33:46.560Z,101100.19
2023-03-21T17:38:54.312Z,101099.28
2023-03-21T17:43:57.841Z,101100.94
2023-03-21T17:49:01.170Z,101095.09
2023-03-21T17:54:06.117Z,101094.16
2023-03-21T17:59:14.681Z,101110.88
2023-03-21T18:04:17.974Z,101104.44
2023-03-21T18:09:22.556Z,101095.22
2023-03-21T18:14:28.727Z,101096.81
2023-03-21T18:19:34.647Z,101108.97
2023-03-21T18:24:39.438Z,101103.25
2023-03-21T18:35:06.824Z,101122.13
2023-03-21T18:40:13.981Z,101116.31
2023-03-21T18:45:18.282Z,101109.72
2023-03-21T18:50:21.789Z,101113.91
2023-03-21T18:55:44.775Z,101094.31
2023-03-21T19:00:50.742Z,101094.88
2023-03-21T19:05:54.319Z,101108.34
2023-03-21T19:11:01.490Z,101110.66
2023-03-21T19:16:10.665Z,101108.75
2023-03-21T19:21:14.488Z,101105.31
2023-03-21T19:26:19.095Z,101111.50
2023-03-21T19:31:24.239Z,101104.66
2023-03-21T19:36:27.851Z,101113.72
2023-03-21T19:41:32.573Z,101106.88
2023-03-21T19:46:36.185Z,101104.75
2023-03-21T19:51:39.395Z,101095.94
2023-03-21T19:56:47.692Z,101107.22
2023-03-21T20:01:56.396Z,101102.19
2023-03-21T20:07:01.122Z,101075.78
2023-03-21T20:12:07.627Z,101080.06
2023-03-21T20:17:11.283Z,101063.38
2023-03-21T20:22:24.564Z,101062.38
2023-03-21T20:27:39.215Z,101059.31
2023-03-21T20:32:45.846Z,101076.72
2023-03-21T20:37:50.303Z,101067.81
2023-03-21T20:42:56.405Z,101067.38
2023-03-21T20:48:00.155Z,101049.47
2023-03-21T20:53:07.334Z,101061.50
2023-03-21T20:58:44.422Z,101055.22
2023-03-21T21:03:39.554Z,101059.44
2023-03-21T21:08:43.249Z,101058.53
2023-03-21T21:13:50.861Z,101043.53
2023-03-21T21:18:54.050Z,101038.09
2023-03-21T21:23:58.413Z,101042.09
2023-03-21T21:29:03.668Z,101048.31
2023-03-21T21:34:07.186Z,101046.38
2023-03-21T21:39:10.597Z,101038.50
2023-03-21T21:44:15.273Z,101020.66
2023-03-21T21:49:18.397Z,101030.50
2023-03-21T21:54:21.521Z,101026.03
2023-03-21T21:59:26.227Z,101010.78
2023-03-21T22:04:30.194Z,101014.50
2023-03-21T22:09:33.636Z,101009.00
2023-03-21T22:14:38.603Z,101022.94
2023-03-21T22:19:42.025Z,101017.84
2023-03-21T22:24:46.158Z,101016.59
2023-03-21T22:29:54.560Z,101010.13
2023-03-21T22:34:57.779Z,101015.16
2023-03-21T22:40:01.458Z,101008.06
2023-03-21T22:45:07.638Z,101006.06
2023-03-21T22:50:11.501Z,100996.97
2023-03-21T22:55:14.587Z,101003.06
2023-03-21T23:00:20.117Z,101002.97
2023-03-21T23:05:23.656Z,100994.00
2023-03-21T23:10:26.861Z,100989.19
2023-03-21T23:15:31.653Z,100991.88
2023-03-21T23:20:34.810Z,100992.63
2023-03-21T23:25:42.508Z,100983.09
2023-03-21T23:30:47.190Z,100996.50
2023-03-21T23:35:53.461Z,100991.69
2023-03-21T23:40:56.803Z,100977.59
2023-03-21T23:46:02.179Z,100975.50
2023-03-21T23:51:05.938Z,100974.44
2023-03-21T23:56:13.674Z,100967.28
